sensor_id;sensor_type;location;lat;lon;timestamp;P1;durP1;ratioP1;P2;durP2;ratioP2
25525;SDS011;13424;48.424;11.258;2024-03-25T00:00:13;8.73;;;2.80;;
25525;SDS011;13424;48.424;11.258;2024-03-25T00:02:41;4.93;;;2.58;;
25525;SDS011;13424;48.424;11.258;2024-03-25T00:05:08;6.07;;;2.70;;
25525;SDS011;13424;48.424;11.258;2024-03-25T00:07:39;2.92;;;2.63;;
25525;SDS011;13424;48.424;11.258;2024-03-25T00:10:06;3.92;;;2.65;;
25525;SDS011;13424;48.424;11.258;2024-03-25T00:12:33;6.93;;;2.88;;
25525;SDS011;13424;48.424;11.258;2024-03-25T00:15:00;5.60;;;2.60;;
25525;SDS011;13424;48.424;11.258;2024-03-25T00:17:26;6.47;;;3.28;;
25525;SDS011;13424;48.424;11.258;2024-03-25T00:19:52;3.63;;;2.60;;
25525;SDS011;13424;48.424;11.258;2024-03-25T00:22:19;4.95;;;2.40;;
25525;SDS011;13424;48.424;11.258;2024-03-25T00:24:47;5.07;;;2.75;;
25525;SDS011;13424;48.424;11.258;2024-03-25T00:27:14;3.75;;;2.60;;
25525;SDS011;13424;48.424;11.258;2024-03-25T00:29:41;4.05;;;2.60;;
25525;SDS011;13424;48.424;11.258;2024-03-25T00:32:07;5.53;;;2.95;;
25525;SDS011;13424;48.424;11.258;2024-03-25T00:34:34;3.72;;;2.55;;
25525;SDS011;13424;48.424;11.258;2024-03-25T00:37:00;6.95;;;3.17;;
25525;SDS011;13424;48.424;11.258;2024-03-25T00:39:27;3.70;;;2.60;;
25525;SDS011;13424;48.424;11.258;2024-03-25T00:41:54;3.60;;;2.70;;
25525;SDS011;13424;48.424;11.258;2024-03-25T00:44:20;6.80;;;2.95;;
25525;SDS011;13424;48.424;11.258;2024-03-25T00:46:46;6.28;;;2.40;;
25525;SDS011;13424;48.424;11.258;2024-03-25T00:49:12;6.70;;;3.05;;
25525;SDS011;13424;48.424;11.258;2024-03-25T00:51:39;4.32;;;2.70;;
25525;SDS011;13424;48.424;11.258;2024-03-25T00:54:05;6.55;;;3.10;;
25525;SDS011;13424;48.424;11.258;2024-03-25T00:56:31;4.28;;;2.90;;
25525;SDS011;13424;48.424;11.258;2024-03-25T00:58:57;3.72;;;2.42;;
25525;SDS011;13424;48.424;11.258;2024-03-25T01:01:28;6.63;;;2.85;;
25525;SDS011;13424;48.424;11.258;2024-03-25T01:03:58;4.22;;;2.83;;
25525;SDS011;13424;48.424;11.258;2024-03-25T01:06:24;3.50;;;2.38;;
25525;SDS011;13424;48.424;11.258;2024-03-25T01:08:50;4.82;;;2.70;;
25525;SDS011;13424;48.424;11.258;2024-03-25T01:11:17;5.53;;;2.63;;
25525;SDS011;13424;48.424;11.258;2024-03-25T01:13:43;4.40;;;2.50;;
25525;SDS011;13424;48.424;11.258;2024-03-25T01:16:09;4.50;;;1.92;;
25525;SDS011;13424;48.424;11.258;2024-03-25T01:18:35;4.55;;;2.50;;
25525;SDS011;13424;48.424;11.258;2024-03-25T01:21:02;9.82;;;2.85;;
25525;SDS011;13424;48.424;11.258;2024-03-25T01:23:28;7.35;;;2.75;;
25525;SDS011;13424;48.424;11.258;2024-03-25T01:25:54;8.32;;;3.17;;
25525;SDS011;13424;48.424;11.258;2024-03-25T01:28:20;5.68;;;2.63;;
25525;SDS011;13424;48.424;11.258;2024-03-25T01:30:48;5.95;;;2.50;;
25525;SDS011;13424;48.424;11.258;2024-03-25T01:33:14;3.03;;;2.30;;
25525;SDS011;13424;48.424;11.258;2024-03-25T01:35:40;4.38;;;2.47;;
25525;SDS011;13424;48.424;11.258;2024-03-25T01:38:06;12.20;;;2.72;;
25525;SDS011;13424;48.424;11.258;2024-03-25T01:40:33;4.22;;;2.20;;
25525;SDS011;13424;48.424;11.258;2024-03-25T01:43:01;5.35;;;3.10;;
25525;SDS011;13424;48.424;11.258;2024-03-25T01:45:30;5.80;;;3.35;;
25525;SDS011;13424;48.424;11.258;2024-03-25T01:48:07;6.25;;;2.63;;
25525;SDS011;13424;48.424;11.258;2024-03-25T01:50:43;5.35;;;3.25;;
25525;SDS011;13424;48.424;11.258;2024-03-25T01:53:11;6.70;;;3.13;;
25525;SDS011;13424;48.424;11.258;2024-03-25T01:55:39;7.28;;;3.10;;
25525;SDS011;13424;48.424;11.258;2024-03-25T01:58:08;4.25;;;2.60;;
25525;SDS011;13424;48.424;11.258;2024-03-25T02:00:34;5.57;;;2.85;;
25525;SDS011;13424;48.424;11.258;2024-03-25T02:03:01;4.57;;;3.20;;
25525;SDS011;13424;48.424;11.258;2024-03-25T02:05:27;4.93;;;3.60;;
25525;SDS011;13424;48.424;11.258;2024-03-25T02:07:53;8.55;;;5.10;;
25525;SDS011;13424;48.424;11.258;2024-03-25T02:10:21;10.45;;;3.05;;
25525;SDS011;13424;48.424;11.258;2024-03-25T02:12:47;4.45;;;2.90;;
25525;SDS011;13424;48.424;11.258;2024-03-25T02:15:14;3.95;;;2.90;;
25525;SDS011;13424;48.424;11.258;2024-03-25T02:17:41;6.18;;;3.47;;
25525;SDS011;13424;48.424;11.258;2024-03-25T02:20:07;6.30;;;3.38;;
25525;SDS011;13424;48.424;11.258;2024-03-25T02:22:34;6.60;;;3.13;;
25525;SDS011;13424;48.424;11.258;2024-03-25T02:25:06;3.83;;;2.83;;
25525;SDS011;13424;48.424;11.258;2024-03-25T02:27:38;4.53;;;3.15;;
25525;SDS011;13424;48.424;11.258;2024-03-25T02:30:05;4.30;;;3.00;;
25525;SDS011;13424;48.424;11.258;2024-03-25T02:32:38;5.53;;;3.13;;
25525;SDS011;13424;48.424;11.258;2024-03-25T02:35:06;6.10;;;3.28;;
25525;SDS011;13424;48.424;11.258;2024-03-25T02:37:38;9.35;;;3.33;;
25525;SDS011;13424;48.424;11.258;2024-03-25T02:40:06;9.45;;;3.38;;
25525;SDS011;13424;48.424;11.258;2024-03-25T02:42:35;8.20;;;2.95;;
25525;SDS011;13424;48.424;11.258;2024-03-25T02:45:02;6.03;;;3.63;;
25525;SDS011;13424;48.424;11.258;2024-03-25T02:47:28;10.60;;;3.55;;
25525;SDS011;13424;48.424;11.258;2024-03-25T02:49:55;5.22;;;3.40;;
25525;SDS011;13424;48.424;11.258;2024-03-25T02:52:21;5.20;;;3.78;;
25525;SDS011;13424;48.424;11.258;2024-03-25T02:54:48;7.38;;;3.65;;
25525;SDS011;13424;48.424;11.258;2024-03-25T02:57:13;5.70;;;3.25;;
25525;SDS011;13424;48.424;11.258;2024-03-25T02:59:39;7.55;;;3.45;;
25525;SDS011;13424;48.424;11.258;2024-03-25T03:02:06;4.35;;;3.00;;
25525;SDS011;13424;48.424;11.258;2024-03-25T03:04:32;4.85;;;3.22;;
25525;SDS011;13424;48.424;11.258;2024-03-25T03:06:58;7.80;;;4.03;;
25525;SDS011;13424;48.424;11.258;2024-03-25T03:09:24;6.60;;;3.75;;
25525;SDS011;13424;48.424;11.258;2024-03-25T03:11:50;7.78;;;4.07;;
25525;SDS011;13424;48.424;11.258;2024-03-25T03:14:16;7.05;;;3.55;;
25525;SDS011;13424;48.424;11.258;2024-03-25T03:16:42;7.40;;;3.60;;
25525;SDS011;13424;48.424;11.258;2024-03-25T03:19:08;6.57;;;4.00;;
25525;SDS011;13424;48.424;11.258;2024-03-25T03:21:35;8.32;;;4.00;;
25525;SDS011;13424;48.424;11.258;2024-03-25T03:24:04;9.38;;;4.18;;
25525;SDS011;13424;48.424;11.258;2024-03-25T03:26:31;5.53;;;3.40;;
25525;SDS011;13424;48.424;11.258;2024-03-25T03:28:57;7.57;;;3.72;;
25525;SDS011;13424;48.424;11.258;2024-03-25T03:31:24;11.52;;;4.28;;
25525;SDS011;13424;48.424;11.258;2024-03-25T03:33:51;10.15;;;3.78;;
25525;SDS011;13424;48.424;11.258;2024-03-25T03:36:19;7.00;;;3.72;;
25525;SDS011;13424;48.424;11.258;2024-03-25T03:38:50;6.40;;;3.85;;
25525;SDS011;13424;48.424;11.258;2024-03-25T03:41:17;5.38;;;3.28;;
25525;SDS011;13424;48.424;11.258;2024-03-25T03:43:43;9.13;;;4.13;;
25525;SDS011;13424;48.424;11.258;2024-03-25T03:46:09;10.55;;;4.10;;
25525;SDS011;13424;48.424;11.258;2024-03-25T03:48:35;6.45;;;4.15;;
25525;SDS011;13424;48.424;11.258;2024-03-25T03:51:04;7.22;;;3.85;;
25525;SDS011;13424;48.424;11.258;2024-03-25T03:53:31;7.65;;;4.00;;
25525;SDS011;13424;48.424;11.258;2024-03-25T03:56:01;7.57;;;4.28;;
25525;SDS011;13424;48.424;11.258;2024-03-25T03:58:30;7.72;;;3.92;;
25525;SDS011;13424;48.424;11.258;2024-03-25T04:00:57;8.32;;;4.90;;
25525;SDS011;13424;48.424;11.258;2024-03-25T04:03:26;10.05;;;4.50;;
25525;SDS011;13424;48.424;11.258;2024-03-25T04:05:52;8.80;;;4.40;;
25525;SDS011;13424;48.424;11.258;2024-03-25T04:08:18;9.05;;;4.25;;
25525;SDS011;13424;48.424;11.258;2024-03-25T04:10:45;8.85;;;4.45;;
25525;SDS011;13424;48.424;11.258;2024-03-25T04:13:11;7.07;;;4.68;;
25525;SDS011;13424;48.424;11.258;2024-03-25T04:15:39;8.15;;;4.35;;
25525;SDS011;13424;48.424;11.258;2024-03-25T04:18:06;7.95;;;4.97;;
25525;SDS011;13424;48.424;11.258;2024-03-25T04:20:37;9.00;;;4.65;;
25525;SDS011;13424;48.424;11.258;2024-03-25T04:23:07;8.45;;;4.63;;
25525;SDS011;13424;48.424;11.258;2024-03-25T04:25:34;7.50;;;4.72;;
25525;SDS011;13424;48.424;11.258;2024-03-25T04:28:04;8.80;;;4.60;;
25525;SDS011;13424;48.424;11.258;2024-03-25T04:30:31;8.00;;;4.50;;
25525;SDS011;13424;48.424;11.258;2024-03-25T04:32:58;8.30;;;4.65;;
25525;SDS011;13424;48.424;11.258;2024-03-25T04:35:25;9.57;;;4.95;;
25525;SDS011;13424;48.424;11.258;2024-03-25T04:37:51;10.90;;;5.03;;
25525;SDS011;13424;48.424;11.258;2024-03-25T04:40:18;5.93;;;4.90;;
25525;SDS011;13424;48.424;11.258;2024-03-25T04:42:45;8.07;;;5.15;;
25525;SDS011;13424;48.424;11.258;2024-03-25T04:45:11;11.68;;;5.05;;
25525;SDS011;13424;48.424;11.258;2024-03-25T04:47:37;8.00;;;3.88;;
25525;SDS011;13424;48.424;11.258;2024-03-25T04:50:04;8.27;;;5.05;;
25525;SDS011;13424;48.424;11.258;2024-03-25T04:52:31;9.93;;;4.75;;
25525;SDS011;13424;48.424;11.258;2024-03-25T04:54:57;10.13;;;4.80;;
25525;SDS011;13424;48.424;11.258;2024-03-25T04:57:24;7.35;;;4.28;;
25525;SDS011;13424;48.424;11.258;2024-03-25T04:59:50;5.68;;;4.35;;
25525;SDS011;13424;48.424;11.258;2024-03-25T05:02:16;12.30;;;4.80;;
25525;SDS011;13424;48.424;11.258;2024-03-25T05:04:42;8.48;;;5.28;;
25525;SDS011;13424;48.424;11.258;2024-03-25T05:07:08;10.93;;;5.22;;
25525;SDS011;13424;48.424;11.258;2024-03-25T05:09:34;11.45;;;5.32;;
25525;SDS011;13424;48.424;11.258;2024-03-25T05:12:00;5.97;;;4.43;;
25525;SDS011;13424;48.424;11.258;2024-03-25T05:14:26;6.75;;;5.30;;
25525;SDS011;13424;48.424;11.258;2024-03-25T05:16:52;8.07;;;5.25;;
25525;SDS011;13424;48.424;11.258;2024-03-25T05:19:18;10.07;;;6.20;;
25525;SDS011;13424;48.424;11.258;2024-03-25T05:21:44;7.63;;;4.97;;
25525;SDS011;13424;48.424;11.258;2024-03-25T05:24:11;9.52;;;4.68;;
25525;SDS011;13424;48.424;11.258;2024-03-25T05:26:37;8.00;;;4.20;;
25525;SDS011;13424;48.424;11.258;2024-03-25T05:29:03;10.18;;;4.55;;
25525;SDS011;13424;48.424;11.258;2024-03-25T05:31:29;9.52;;;5.20;;
25525;SDS011;13424;48.424;11.258;2024-03-25T05:33:57;10.20;;;5.40;;
25525;SDS011;13424;48.424;11.258;2024-03-25T05:36:26;8.98;;;5.75;;
25525;SDS011;13424;48.424;11.258;2024-03-25T05:38:52;9.45;;;5.20;;
25525;SDS011;13424;48.424;11.258;2024-03-25T05:41:18;9.32;;;5.07;;
25525;SDS011;13424;48.424;11.258;2024-03-25T05:43:44;7.43;;;4.80;;
25525;SDS011;13424;48.424;11.258;2024-03-25T05:46:11;7.88;;;5.32;;
25525;SDS011;13424;48.424;11.258;2024-03-25T05:48:36;8.65;;;5.53;;
25525;SDS011;13424;48.424;11.258;2024-03-25T05:51:06;12.43;;;5.28;;
25525;SDS011;13424;48.424;11.258;2024-03-25T05:53:35;8.90;;;5.43;;
25525;SDS011;13424;48.424;11.258;2024-03-25T05:56:01;11.25;;;5.15;;
25525;SDS011;13424;48.424;11.258;2024-03-25T05:58:28;10.68;;;5.70;;
25525;SDS011;13424;48.424;11.258;2024-03-25T06:00:54;8.88;;;5.55;;
25525;SDS011;13424;48.424;11.258;2024-03-25T06:03:20;8.38;;;5.00;;
25525;SDS011;13424;48.424;11.258;2024-03-25T06:05:46;8.57;;;5.10;;
25525;SDS011;13424;48.424;11.258;2024-03-25T06:08:13;9.85;;;5.22;;
25525;SDS011;13424;48.424;11.258;2024-03-25T06:10:59;7.75;;;4.53;;
25525;SDS011;13424;48.424;11.258;2024-03-25T06:13:26;11.25;;;5.50;;
25525;SDS011;13424;48.424;11.258;2024-03-25T06:15:52;8.45;;;5.38;;
25525;SDS011;13424;48.424;11.258;2024-03-25T06:18:19;8.30;;;5.43;;
25525;SDS011;13424;48.424;11.258;2024-03-25T06:20:45;8.43;;;4.85;;
25525;SDS011;13424;48.424;11.258;2024-03-25T06:23:21;9.70;;;4.93;;
25525;SDS011;13424;48.424;11.258;2024-03-25T06:25:56;7.68;;;4.68;;
25525;SDS011;13424;48.424;11.258;2024-03-25T06:28:25;5.47;;;4.60;;
25525;SDS011;13424;48.424;11.258;2024-03-25T06:30:51;12.07;;;5.30;;
25525;SDS011;13424;48.424;11.258;2024-03-25T06:33:36;6.25;;;4.30;;
25525;SDS011;13424;48.424;11.258;2024-03-25T06:36:21;12.95;;;6.20;;
25525;SDS011;13424;48.424;11.258;2024-03-25T06:38:48;8.05;;;4.80;;
25525;SDS011;13424;48.424;11.258;2024-03-25T06:41:14;7.88;;;5.05;;
25525;SDS011;13424;48.424;11.258;2024-03-25T06:43:40;10.90;;;5.55;;
25525;SDS011;13424;48.424;11.258;2024-03-25T06:46:07;8.48;;;5.03;;
25525;SDS011;13424;48.424;11.258;2024-03-25T06:48:34;9.77;;;4.97;;
25525;SDS011;13424;48.424;11.258;2024-03-25T06:51:00;5.97;;;4.35;;
25525;SDS011;13424;48.424;11.258;2024-03-25T06:53:30;8.82;;;5.03;;
25525;SDS011;13424;48.424;11.258;2024-03-25T06:55:57;7.07;;;5.05;;
25525;SDS011;13424;48.424;11.258;2024-03-25T06:58:26;8.75;;;5.38;;
25525;SDS011;13424;48.424;11.258;2024-03-25T07:00:53;8.50;;;4.90;;
25525;SDS011;13424;48.424;11.258;2024-03-25T07:03:23;8.10;;;4.95;;
25525;SDS011;13424;48.424;11.258;2024-03-25T07:05:50;11.35;;;5.18;;
25525;SDS011;13424;48.424;11.258;2024-03-25T07:08:26;8.32;;;4.50;;
25525;SDS011;13424;48.424;11.258;2024-03-25T07:10:58;9.25;;;4.95;;
25525;SDS011;13424;48.424;11.258;2024-03-25T07:13:25;6.88;;;4.75;;
25525;SDS011;13424;48.424;11.258;2024-03-25T07:15:51;11.95;;;5.43;;
25525;SDS011;13424;48.424;11.258;2024-03-25T07:18:17;8.85;;;4.93;;
25525;SDS011;13424;48.424;11.258;2024-03-25T07:20:43;10.73;;;5.20;;
25525;SDS011;13424;48.424;11.258;2024-03-25T07:23:10;5.90;;;4.50;;
25525;SDS011;13424;48.424;11.258;2024-03-25T07:25:36;9.57;;;5.05;;
25525;SDS011;13424;48.424;11.258;2024-03-25T07:28:03;9.80;;;5.03;;
25525;SDS011;13424;48.424;11.258;2024-03-25T07:30:29;7.03;;;5.13;;
25525;SDS011;13424;48.424;11.258;2024-03-25T07:32:58;8.27;;;4.78;;
25525;SDS011;13424;48.424;11.258;2024-03-25T07:35:27;9.63;;;5.00;;
25525;SDS011;13424;48.424;11.258;2024-03-25T07:37:52;10.27;;;5.47;;
25525;SDS011;13424;48.424;11.258;2024-03-25T07:40:19;13.73;;;5.35;;
25525;SDS011;13424;48.424;11.258;2024-03-25T07:42:46;9.00;;;5.05;;
25525;SDS011;13424;48.424;11.258;2024-03-25T07:45:14;9.10;;;4.70;;
25525;SDS011;13424;48.424;11.258;2024-03-25T07:47:40;7.57;;;4.85;;
25525;SDS011;13424;48.424;11.258;2024-03-25T07:50:07;6.65;;;4.38;;
25525;SDS011;13424;48.424;11.258;2024-03-25T07:52:33;9.25;;;5.22;;
25525;SDS011;13424;48.424;11.258;2024-03-25T07:55:08;7.00;;;4.72;;
25525;SDS011;13424;48.424;11.258;2024-03-25T07:57:35;7.70;;;4.75;;
25525;SDS011;13424;48.424;11.258;2024-03-25T08:00:01;7.97;;;5.35;;
25525;SDS011;13424;48.424;11.258;2024-03-25T08:02:37;9.82;;;5.05;;
25525;SDS011;13424;48.424;11.258;2024-03-25T08:05:03;11.05;;;5.35;;
25525;SDS011;13424;48.424;11.258;2024-03-25T08:07:31;7.18;;;5.25;;
25525;SDS011;13424;48.424;11.258;2024-03-25T08:09:58;7.50;;;5.07;;
25525;SDS011;13424;48.424;11.258;2024-03-25T08:12:24;13.52;;;4.82;;
25525;SDS011;13424;48.424;11.258;2024-03-25T08:14:50;10.18;;;5.05;;
25525;SDS011;13424;48.424;11.258;2024-03-25T08:17:16;10.35;;;4.90;;
25525;SDS011;13424;48.424;11.258;2024-03-25T08:19:42;10.65;;;5.50;;
25525;SDS011;13424;48.424;11.258;2024-03-25T08:22:08;11.10;;;5.45;;
25525;SDS011;13424;48.424;11.258;2024-03-25T08:24:34;9.43;;;5.22;;
25525;SDS011;13424;48.424;11.258;2024-03-25T08:27:00;9.90;;;5.40;;
25525;SDS011;13424;48.424;11.258;2024-03-25T08:29:26;8.13;;;5.22;;
25525;SDS011;13424;48.424;11.258;2024-03-25T08:31:52;10.60;;;5.40;;
25525;SDS011;13424;48.424;11.258;2024-03-25T08:34:18;8.45;;;5.00;;
25525;SDS011;13424;48.424;11.258;2024-03-25T08:36:44;8.02;;;4.88;;
25525;SDS011;13424;48.424;11.258;2024-03-25T08:39:10;9.15;;;4.95;;
25525;SDS011;13424;48.424;11.258;2024-03-25T08:41:36;7.45;;;5.45;;
25525;SDS011;13424;48.424;11.258;2024-03-25T08:44:02;13.43;;;5.20;;
25525;SDS011;13424;48.424;11.258;2024-03-25T08:46:29;12.25;;;5.10;;
25525;SDS011;13424;48.424;11.258;2024-03-25T08:48:55;11.32;;;5.65;;
25525;SDS011;13424;48.424;11.258;2024-03-25T08:51:21;13.52;;;5.07;;
25525;SDS011;13424;48.424;11.258;2024-03-25T08:53:47;13.55;;;5.95;;
25525;SDS011;13424;48.424;11.258;2024-03-25T08:56:13;16.10;;;6.18;;
25525;SDS011;13424;48.424;11.258;2024-03-25T08:58:39;12.43;;;6.93;;
25525;SDS011;13424;48.424;11.258;2024-03-25T09:01:05;17.88;;;6.10;;
25525;SDS011;13424;48.424;11.258;2024-03-25T09:03:31;10.10;;;6.13;;
25525;SDS011;13424;48.424;11.258;2024-03-25T09:05:58;8.98;;;6.70;;
25525;SDS011;13424;48.424;11.258;2024-03-25T09:08:24;10.00;;;6.03;;
25525;SDS011;13424;48.424;11.258;2024-03-25T09:10:51;9.90;;;5.50;;
25525;SDS011;13424;48.424;11.258;2024-03-25T09:13:32;7.90;;;5.93;;
25525;SDS011;13424;48.424;11.258;2024-03-25T09:15:58;13.93;;;5.40;;
25525;SDS011;13424;48.424;11.258;2024-03-25T09:18:24;14.38;;;6.03;;
25525;SDS011;13424;48.424;11.258;2024-03-25T09:20:52;10.57;;;5.82;;
25525;SDS011;13424;48.424;11.258;2024-03-25T09:23:18;10.45;;;5.60;;
25525;SDS011;13424;48.424;11.258;2024-03-25T09:25:51;12.30;;;6.10;;
25525;SDS011;13424;48.424;11.258;2024-03-25T09:28:19;11.32;;;6.22;;
25525;SDS011;13424;48.424;11.258;2024-03-25T09:30:45;10.45;;;5.82;;
25525;SDS011;13424;48.424;11.258;2024-03-25T09:33:11;5.53;;;4.47;;
25525;SDS011;13424;48.424;11.258;2024-03-25T09:35:37;7.80;;;5.32;;
25525;SDS011;13424;48.424;11.258;2024-03-25T09:38:03;11.07;;;4.78;;
25525;SDS011;13424;48.424;11.258;2024-03-25T09:40:29;11.38;;;5.47;;
25525;SDS011;13424;48.424;11.258;2024-03-25T09:42:57;11.25;;;5.25;;
25525;SDS011;13424;48.424;11.258;2024-03-25T09:45:27;11.23;;;6.55;;
25525;SDS011;13424;48.424;11.258;2024-03-25T09:47:55;14.32;;;5.47;;
25525;SDS011;13424;48.424;11.258;2024-03-25T09:50:22;11.05;;;5.55;;
25525;SDS011;13424;48.424;11.258;2024-03-25T09:52:48;13.40;;;5.00;;
25525;SDS011;13424;48.424;11.258;2024-03-25T09:55:15;8.98;;;5.38;;
25525;SDS011;13424;48.424;11.258;2024-03-25T09:57:45;8.05;;;5.57;;
25525;SDS011;13424;48.424;11.258;2024-03-25T10:00:11;11.45;;;4.88;;
25525;SDS011;13424;48.424;11.258;2024-03-25T10:02:47;7.07;;;4.45;;
25525;SDS011;13424;48.424;11.258;2024-03-25T10:05:13;9.98;;;5.28;;
25525;SDS011;13424;48.424;11.258;2024-03-25T10:07:39;7.03;;;4.75;;
25525;SDS011;13424;48.424;11.258;2024-03-25T10:10:06;9.18;;;4.05;;
25525;SDS011;13424;48.424;11.258;2024-03-25T10:12:33;7.30;;;4.40;;
25525;SDS011;13424;48.424;11.258;2024-03-25T10:15:01;12.45;;;4.90;;
25525;SDS011;13424;48.424;11.258;2024-03-25T10:17:31;6.53;;;3.83;;
25525;SDS011;13424;48.424;11.258;2024-03-25T10:19:57;5.80;;;3.65;;
25525;SDS011;13424;48.424;11.258;2024-03-25T10:22:26;6.50;;;4.00;;
25525;SDS011;13424;48.424;11.258;2024-03-25T10:24:53;7.97;;;4.88;;
25525;SDS011;13424;48.424;11.258;2024-03-25T10:27:22;6.03;;;3.67;;
25525;SDS011;13424;48.424;11.258;2024-03-25T10:29:53;6.45;;;3.95;;
25525;SDS011;13424;48.424;11.258;2024-03-25T10:32:22;5.65;;;3.42;;
25525;SDS011;13424;48.424;11.258;2024-03-25T10:34:50;8.07;;;3.35;;
25525;SDS011;13424;48.424;11.258;2024-03-25T10:37:16;6.03;;;3.58;;
25525;SDS011;13424;48.424;11.258;2024-03-25T10:39:50;4.57;;;3.03;;
25525;SDS011;13424;48.424;11.258;2024-03-25T10:42:20;4.93;;;3.30;;
25525;SDS011;13424;48.424;11.258;2024-03-25T10:44:48;6.05;;;3.20;;
25525;SDS011;13424;48.424;11.258;2024-03-25T10:47:25;3.30;;;2.70;;
25525;SDS011;13424;48.424;11.258;2024-03-25T10:49:58;6.70;;;2.73;;
25525;SDS011;13424;48.424;11.258;2024-03-25T10:52:28;5.53;;;2.60;;
25525;SDS011;13424;48.424;11.258;2024-03-25T10:54:55;5.45;;;2.80;;
25525;SDS011;13424;48.424;11.258;2024-03-25T10:57:23;4.30;;;2.88;;
25525;SDS011;13424;48.424;11.258;2024-03-25T10:59:51;4.30;;;2.88;;
25525;SDS011;13424;48.424;11.258;2024-03-25T11:02:17;5.47;;;3.65;;
25525;SDS011;13424;48.424;11.258;2024-03-25T11:04:47;7.60;;;3.47;;
25525;SDS011;13424;48.424;11.258;2024-03-25T11:07:16;3.88;;;2.60;;
25525;SDS011;13424;48.424;11.258;2024-03-25T11:09:42;4.07;;;2.88;;
25525;SDS011;13424;48.424;11.258;2024-03-25T11:12:12;5.97;;;2.97;;
25525;SDS011;13424;48.424;11.258;2024-03-25T11:14:40;4.70;;;2.80;;
25525;SDS011;13424;48.424;11.258;2024-03-25T11:17:15;5.75;;;2.50;;
25525;SDS011;13424;48.424;11.258;2024-03-25T11:19:41;6.07;;;3.05;;
25525;SDS011;13424;48.424;11.258;2024-03-25T11:22:09;4.82;;;2.78;;
25525;SDS011;13424;48.424;11.258;2024-03-25T11:24:36;6.47;;;2.83;;
25525;SDS011;13424;48.424;11.258;2024-03-25T11:27:06;4.70;;;2.78;;
25525;SDS011;13424;48.424;11.258;2024-03-25T11:29:34;4.40;;;2.67;;
25525;SDS011;13424;48.424;11.258;2024-03-25T11:32:04;4.55;;;2.25;;
25525;SDS011;13424;48.424;11.258;2024-03-25T11:34:31;3.33;;;2.58;;
25525;SDS011;13424;48.424;11.258;2024-03-25T11:36:57;2.47;;;1.92;;
25525;SDS011;13424;48.424;11.258;2024-03-25T11:39:24;5.55;;;2.47;;
25525;SDS011;13424;48.424;11.258;2024-03-25T11:41:52;2.60;;;2.22;;
25525;SDS011;13424;48.424;11.258;2024-03-25T11:44:18;5.32;;;2.65;;
25525;SDS011;13424;48.424;11.258;2024-03-25T11:46:50;3.42;;;2.42;;
25525;SDS011;13424;48.424;11.258;2024-03-25T11:49:20;4.45;;;3.00;;
25525;SDS011;13424;48.424;11.258;2024-03-25T11:51:46;6.18;;;4.00;;
25525;SDS011;13424;48.424;11.258;2024-03-25T11:54:13;4.35;;;2.80;;
25525;SDS011;13424;48.424;11.258;2024-03-25T11:56:39;3.38;;;2.63;;
25525;SDS011;13424;48.424;11.258;2024-03-25T11:59:06;6.50;;;3.00;;
25525;SDS011;13424;48.424;11.258;2024-03-25T12:01:33;4.38;;;2.15;;
25525;SDS011;13424;48.424;11.258;2024-03-25T12:04:10;3.05;;;2.58;;
25525;SDS011;13424;48.424;11.258;2024-03-25T12:06:37;3.53;;;2.60;;
25525;SDS011;13424;48.424;11.258;2024-03-25T12:09:03;3.63;;;2.40;;
25525;SDS011;13424;48.424;11.258;2024-03-25T12:11:47;7.53;;;3.13;;
25525;SDS011;13424;48.424;11.258;2024-03-25T12:14:14;3.00;;;2.33;;
25525;SDS011;13424;48.424;11.258;2024-03-25T12:16:41;6.90;;;3.53;;
25525;SDS011;13424;48.424;11.258;2024-03-25T12:19:08;5.72;;;3.33;;
25525;SDS011;13424;48.424;11.258;2024-03-25T12:21:34;4.43;;;3.10;;
25525;SDS011;13424;48.424;11.258;2024-03-25T12:24:00;5.03;;;2.65;;
25525;SDS011;13424;48.424;11.258;2024-03-25T12:26:26;2.78;;;2.25;;
25525;SDS011;13424;48.424;11.258;2024-03-25T12:28:52;4.70;;;3.03;;
25525;SDS011;13424;48.424;11.258;2024-03-25T12:31:18;4.60;;;2.70;;
25525;SDS011;13424;48.424;11.258;2024-03-25T12:33:44;2.70;;;2.38;;
25525;SDS011;13424;48.424;11.258;2024-03-25T12:36:13;5.63;;;3.25;;
25525;SDS011;13424;48.424;11.258;2024-03-25T12:38:39;6.10;;;2.80;;
25525;SDS011;13424;48.424;11.258;2024-03-25T12:41:11;4.40;;;2.42;;
25525;SDS011;13424;48.424;11.258;2024-03-25T12:43:44;3.92;;;2.35;;
25525;SDS011;13424;48.424;11.258;2024-03-25T12:46:11;3.83;;;2.40;;
25525;SDS011;13424;48.424;11.258;2024-03-25T12:48:38;4.82;;;2.70;;
25525;SDS011;13424;48.424;11.258;2024-03-25T12:51:06;3.60;;;2.53;;
25525;SDS011;13424;48.424;11.258;2024-03-25T12:53:40;2.53;;;1.88;;
25525;SDS011;13424;48.424;11.258;2024-03-25T12:56:06;3.75;;;2.30;;
25525;SDS011;13424;48.424;11.258;2024-03-25T12:58:33;4.25;;;2.78;;
25525;SDS011;13424;48.424;11.258;2024-03-25T13:00:59;3.05;;;2.30;;
25525;SDS011;13424;48.424;11.258;2024-03-25T13:03:25;3.25;;;2.25;;
25525;SDS011;13424;48.424;11.258;2024-03-25T13:05:51;3.05;;;2.25;;
25525;SDS011;13424;48.424;11.258;2024-03-25T13:08:19;4.45;;;2.03;;
25525;SDS011;13424;48.424;11.258;2024-03-25T13:10:45;4.03;;;2.20;;
25525;SDS011;13424;48.424;11.258;2024-03-25T13:13:11;3.05;;;2.00;;
25525;SDS011;13424;48.424;11.258;2024-03-25T13:15:37;3.72;;;2.50;;
25525;SDS011;13424;48.424;11.258;2024-03-25T13:18:03;2.90;;;2.10;;
25525;SDS011;13424;48.424;11.258;2024-03-25T13:20:29;2.83;;;2.20;;
25525;SDS011;13424;48.424;11.258;2024-03-25T13:22:55;3.78;;;2.40;;
25525;SDS011;13424;48.424;11.258;2024-03-25T13:25:24;3.80;;;1.90;;
25525;SDS011;13424;48.424;11.258;2024-03-25T13:30:21;2.50;;;2.10;;
25525;SDS011;13424;48.424;11.258;2024-03-25T13:32:50;2.10;;;1.90;;
25525;SDS011;13424;48.424;11.258;2024-03-25T13:35:16;6.10;;;1.95;;
25525;SDS011;13424;48.424;11.258;2024-03-25T13:37:42;2.55;;;1.95;;
25525;SDS011;13424;48.424;11.258;2024-03-25T13:40:08;2.40;;;2.15;;
25525;SDS011;13424;48.424;11.258;2024-03-25T13:42:36;3.92;;;2.00;;
25525;SDS011;13424;48.424;11.258;2024-03-25T13:45:06;5.75;;;2.28;;
25525;SDS011;13424;48.424;11.258;2024-03-25T13:47:33;2.85;;;2.10;;
25525;SDS011;13424;48.424;11.258;2024-03-25T13:50:05;2.75;;;1.95;;
25525;SDS011;13424;48.424;11.258;2024-03-25T13:52:36;3.78;;;2.20;;
25525;SDS011;13424;48.424;11.258;2024-03-25T13:55:02;5.05;;;2.33;;
25525;SDS011;13424;48.424;11.258;2024-03-25T13:57:29;2.30;;;1.63;;
25525;SDS011;13424;48.424;11.258;2024-03-25T13:59:55;3.65;;;2.13;;
25525;SDS011;13424;48.424;11.258;2024-03-25T14:02:23;3.28;;;2.10;;
25525;SDS011;13424;48.424;11.258;2024-03-25T14:04:49;4.70;;;1.70;;
25525;SDS011;13424;48.424;11.258;2024-03-25T14:07:15;3.40;;;1.90;;
25525;SDS011;13424;48.424;11.258;2024-03-25T14:09:41;5.32;;;2.15;;
25525;SDS011;13424;48.424;11.258;2024-03-25T14:12:07;2.38;;;1.92;;
25525;SDS011;13424;48.424;11.258;2024-03-25T14:14:33;5.15;;;2.15;;
25525;SDS011;13424;48.424;11.258;2024-03-25T14:16:59;3.75;;;2.10;;
25525;SDS011;13424;48.424;11.258;2024-03-25T14:19:25;1.92;;;1.45;;
25525;SDS011;13424;48.424;11.258;2024-03-25T14:21:51;3.00;;;1.67;;
25525;SDS011;13424;48.424;11.258;2024-03-25T14:24:23;2.22;;;2.00;;
25525;SDS011;13424;48.424;11.258;2024-03-25T14:26:49;4.32;;;2.10;;
25525;SDS011;13424;48.424;11.258;2024-03-25T14:29:15;4.90;;;1.90;;
25525;SDS011;13424;48.424;11.258;2024-03-25T14:31:41;1.90;;;1.70;;
25525;SDS011;13424;48.424;11.258;2024-03-25T14:34:07;5.38;;;1.90;;
25525;SDS011;13424;48.424;11.258;2024-03-25T14:36:33;3.35;;;1.63;;